TimeCST,TemperatureF,Dew PointF,Humidity,Sea Level PressureIn,VisibilityMPH,Wind Direction,Wind SpeedMPH,Gust SpeedMPH,PrecipitationIn,Events,Conditions,WindDirDegrees,DateUTC
12:53 AM,21.9,18.0,85,29.99,6.0,NW,8.1,-,N/A,,Partly Cloudy,320,2012-12-24 06:53:00
1:05 AM,23.0,17.6,80,29.96,6.0,NW,10.4,-,N/A,,Haze,320,2012-12-24 07:05:00
1:25 AM,21.2,17.6,86,29.96,6.0,NNW,9.2,-,N/A,,Mostly Cloudy,330,2012-12-24 07:25:00
1:53 AM,21.0,17.1,85,30.01,5.0,NW,9.2,-,N/A,,Overcast,320,2012-12-24 07:53:00
2:38 AM,19.4,15.8,86,29.97,5.0,NW,6.9,-,N/A,,Partly Cloudy,320,2012-12-24 08:38:00
2:53 AM,19.0,15.1,85,30.00,5.0,NW,8.1,-,N/A,,Clear,320,2012-12-24 08:53:00
3:53 AM,18.0,14.0,84,29.99,5.0,NNW,6.9,-,N/A,,Partly Cloudy,330,2012-12-24 09:53:00
4:53 AM,18.0,12.9,81,30.03,5.0,NW,10.4,-,N/A,,Mostly Cloudy,320,2012-12-24 10:53:00
5:00 AM,17.6,12.2,79,29.99,5.0,NW,10.4,-,N/A,,Mostly Cloudy,320,2012-12-24 11:00:00
5:53 AM,18.0,14.0,84,30.05,4.0,NNW,11.5,-,N/A,,Overcast,340,2012-12-24 11:53:00
6:53 AM,19.0,15.1,85,30.08,4.0,NW,12.7,-,N/A,,Overcast,320,2012-12-24 12:53:00
7:53 AM,19.0,15.1,85,30.08,4.0,NNW,12.7,-,N/A,,Overcast,340,2012-12-24 13:53:00
8:50 AM,19.4,14.0,80,30.05,5.0,NNW,11.5,17.3,N/A,,Overcast,330,2012-12-24 14:50:00
8:53 AM,19.0,14.0,81,30.09,5.0,NNW,10.4,-,N/A,,Overcast,330,2012-12-24 14:53:00
9:53 AM,19.0,12.0,74,30.12,7.0,NW,12.7,-,N/A,,Overcast,320,2012-12-24 15:53:00
10:21 AM,19.4,10.4,68,30.09,10.0,NNW,13.8,-,N/A,,Overcast,330,2012-12-24 16:21:00
10:53 AM,19.0,10.0,68,30.13,10.0,NW,15.0,-,N/A,,Overcast,320,2012-12-24 16:53:00
11:53 AM,21.0,10.9,65,30.10,10.0,North,13.8,-,N/A,,Overcast,350,2012-12-24 17:53:00
12:53 PM,21.0,10.9,65,30.10,10.0,NNW,15.0,18.4,N/A,,Overcast,340,2012-12-24 18:53:00
1:40 PM,21.2,12.2,68,30.07,10.0,NNW,9.2,-,N/A,,Overcast,330,2012-12-24 19:40:00
1:53 PM,19.9,10.9,68,30.10,10.0,NNW,11.5,-,N/A,,Overcast,340,2012-12-24 19:53:00
2:22 PM,21.2,10.4,63,30.06,10.0,North,12.7,-,N/A,,Overcast,350,2012-12-24 20:22:00
2:53 PM,21.0,12.0,68,30.13,10.0,North,11.5,-,N/A,,Overcast,350,2012-12-24 20:53:00
3:53 PM,19.9,10.9,68,30.14,10.0,North,12.7,-,N/A,,Mostly Cloudy,350,2012-12-24 21:53:00
4:53 PM,19.9,10.0,65,30.14,10.0,North,9.2,-,N/A,,Mostly Cloudy,10,2012-12-24 22:53:00
5:53 PM,18.0,10.0,71,30.15,10.0,North,9.2,-,N/A,,Mostly Cloudy,10,2012-12-24 23:53:00
6:53 PM,19.0,10.0,68,30.15,10.0,North,10.4,-,N/A,,Mostly Cloudy,10,2012-12-25 00:53:00
7:53 PM,19.0,10.9,71,30.14,10.0,NNE,10.4,-,N/A,,Mostly Cloudy,20,2012-12-25 01:53:00
8:53 PM,19.0,10.9,71,30.17,10.0,NNE,10.4,-,N/A,,Overcast,30,2012-12-25 02:53:00
9:53 PM,19.9,10.9,68,30.19,10.0,NNE,10.4,-,N/A,,Mostly Cloudy,30,2012-12-25 03:53:00
10:53 PM,19.0,10.9,71,30.19,10.0,NNE,12.7,-,N/A,,Mostly Cloudy,30,2012-12-25 04:53:00
11:53 PM,18.0,10.9,74,30.20,10.0,NNE,9.2,-,N/A,,Overcast,30,2012-12-25 05:53:00